Weather History for KFWZ - September, 2013

Change the Weather History Date:

Wednesday, September 25, 2013

  Actual Average (KLND) Record (KLND)
Temperature  
Mean Temperature 42 °F 54 °F  
Max Temperature 53 °F 68 °F 85 °F (2011)
Min Temperature 32 °F 40 °F 10 °F (1926)
Degree Days  
Heating Degree Days 22 11  
Month to date heating degree days 157  
Since 1 July heating degree days 197  
Cooling Degree Days 0 0  
Month to date cooling degree days 26  
Year to date cooling degree days 471  
Moisture  
Dew Point 31 °F    
Average Humidity 67    
Maximum Humidity 100    
Minimum Humidity 30    
Precipitation  
Precipitation 0.07 in 0.04 in 1.66 in (1915)
Month to date precipitation 0.82  
Year to date precipitation 9.70  
Snow  
Snow 0.00 in 0.10 in - ()
Month to date snowfall 1.8  
Since 1 July snowfall 1.8  
Since 1 September snowfall 1.8  
Snow Depth -    
Sea Level Pressure  
Sea Level Pressure 29.73 in    
Wind  
Wind Speed 9 mph (SW)    
Max Wind Speed 22 mph    
Max Gust Speed 37 mph    
Visibility 9 miles    
Events Rain , Snow , Thunderstorm    
T = Trace of Precipitation, MM = Missing Value Source: NWS Daily Summary

Daily Weather History Graph

Daily Weather History Graph

Search for Another Location

Airport or City:

Trip Planner

Search our weather history database for the weather conditions in past years. The results will help you decide how hot, cold, wet, or windy it might be!

Date:

Astronomy

Sep. 25, 2013 Rise Set
Actual Time 7:06 AM MDT 7:06 PM MDT
Civil Twilight 6:37 AM MDT 7:34 PM MDT
Nautical Twilight 6:05 AM MDT 8:07 PM MDT
Astronomical Twilight 5:31 AM MDT 8:40 PM MDT
Moon 11:09 PM MDT (9/25) 1:20 PM MDT (9/25)
Length of Visible Light 12h 56m
Length of Day
12h 00m
Waning Gibbous, 63% of the Moon is Illuminated
Sep 25
Waning Gibbous
Sep 26
Last Quarter
Oct 4
New
Oct 11
First Quarter
Oct 18
Full

Hourly Weather History & Observations

Time (MDT) Temp. Windchill Dew Point Humidity Pressure Visibility Wind Dir Wind Speed Gust Speed Precip Events Conditions
12:15 AM 46.4 °F 42.4 °F 28.4 °F 50% 29.88 in 10.0 mi SW 8.1 mph - N/A   Scattered Clouds
12:35 AM 46.4 °F 42.9 °F 28.4 °F 50% 29.87 in 10.0 mi SW 6.9 mph - N/A   Mostly Cloudy
12:55 AM 46.4 °F 42.9 °F 28.4 °F 50% 29.87 in 10.0 mi WSW 6.9 mph - N/A   Mostly Cloudy
1:15 AM 46.4 °F 42.4 °F 30.2 °F 53% 29.86 in 10.0 mi SW 8.1 mph - N/A   Scattered Clouds
1:35 AM 46.4 °F 42.9 °F 30.2 °F 53% 29.85 in 10.0 mi WSW 6.9 mph - N/A   Scattered Clouds
1:55 AM 46.4 °F 42.4 °F 30.2 °F 53% 29.84 in 10.0 mi SW 8.1 mph - N/A   Clear
2:15 AM 46.4 °F 42.4 °F 30.2 °F 53% 29.84 in 10.0 mi SSW 8.1 mph - N/A   Mostly Cloudy
2:35 AM 44.6 °F 40.7 °F 30.2 °F 57% 29.84 in 10.0 mi SSW 6.9 mph - N/A   Overcast
2:55 AM 44.6 °F 38.8 °F 30.2 °F 57% 29.83 in 10.0 mi South 11.5 mph 17.3 mph N/A   Overcast
3:15 AM 44.6 °F 40.2 °F 30.2 °F 57% 29.82 in 10.0 mi SSW 8.1 mph 17.3 mph N/A   Mostly Cloudy
3:35 AM 44.6 °F 40.2 °F 30.2 °F 57% 29.81 in 10.0 mi SW 8.1 mph - N/A   Scattered Clouds
3:55 AM 44.6 °F 39.7 °F 30.2 °F 57% 29.81 in 10.0 mi SW 9.2 mph - N/A   Clear
4:15 AM 44.6 °F 39.2 °F 28.4 °F 53% 29.79 in 10.0 mi SW 10.4 mph 17.3 mph N/A   Clear
4:35 AM 44.6 °F 39.2 °F 28.4 °F 53% 29.79 in 10.0 mi SW 10.4 mph 16.1 mph N/A   Clear
4:55 AM 44.6 °F 39.2 °F 28.4 °F 53% 29.79 in 10.0 mi SW 10.4 mph - N/A   Clear
5:15 AM 44.6 °F 39.7 °F 28.4 °F 53% 29.78 in 10.0 mi SW 9.2 mph - N/A   Clear
5:35 AM 44.6 °F 40.2 °F 28.4 °F 53% 29.78 in 10.0 mi SW 8.1 mph - N/A   Clear
5:55 AM 42.8 °F 38.0 °F 28.4 °F 57% 29.77 in 10.0 mi SW 8.1 mph - N/A   Clear
6:15 AM 42.8 °F 38.0 °F 28.4 °F 57% 29.77 in 10.0 mi SW 8.1 mph - N/A   Clear
6:35 AM 42.8 °F 38.0 °F 28.4 °F 57% 29.76 in 10.0 mi SSW 8.1 mph - N/A   Clear
6:55 AM 42.8 °F 38.6 °F 30.2 °F 61% 29.76 in 10.0 mi SW 6.9 mph - N/A   Clear
7:15 AM 42.8 °F 39.3 °F 30.2 °F 61% 29.75 in 10.0 mi SW 5.8 mph - N/A   Clear
7:35 AM 42.8 °F 40.1 °F 30.2 °F 61% 29.74 in 10.0 mi SW 4.6 mph - N/A   Mostly Cloudy
7:55 AM 42.8 °F 40.1 °F 30.2 °F 61% 29.74 in 10.0 mi SW 4.6 mph - N/A   Overcast
8:15 AM 44.6 °F 43.1 °F 30.2 °F 57% 29.74 in 10.0 mi SW 3.5 mph - N/A   Overcast
8:35 AM 46.4 °F 44.3 °F 30.2 °F 53% 29.73 in 10.0 mi SW 4.6 mph - N/A   Overcast
8:55 AM 48.2 °F - 30.2 °F 50% 29.72 in 10.0 mi SSW 5.8 mph - N/A   Overcast
9:15 AM 46.4 °F 43.5 °F 30.2 °F 53% 29.72 in 10.0 mi SW 5.8 mph - N/A   Overcast
9:35 AM 46.4 °F 44.3 °F 30.2 °F 53% 29.71 in 10.0 mi SSW 4.6 mph - N/A   Overcast
9:55 AM 48.2 °F - 30.2 °F 50% 29.70 in 10.0 mi SSW 6.9 mph - N/A   Overcast
10:15 AM 51.8 °F - 30.2 °F 44% 29.69 in 10.0 mi SSW 10.4 mph 18.4 mph N/A   Overcast
10:35 AM 51.8 °F - 30.2 °F 44% 29.69 in 10.0 mi SSW 11.5 mph 18.4 mph N/A   Overcast
10:55 AM 53.6 °F - 28.4 °F 38% 29.68 in 10.0 mi SSW 12.7 mph 21.9 mph N/A   Overcast
11:15 AM 53.6 °F - 28.4 °F 38% 29.67 in 10.0 mi SSW 12.7 mph 18.4 mph N/A   Overcast
11:35 AM 53.6 °F - 24.8 °F 33% 29.65 in 10.0 mi SSW 15.0 mph 26.5 mph N/A   Overcast
11:55 AM 53.6 °F - 24.8 °F 33% 29.64 in 10.0 mi SSW 16.1 mph 29.9 mph N/A   Overcast
12:15 PM 53.6 °F - 23.0 °F 30% 29.63 in 10.0 mi SSW 16.1 mph 36.8 mph N/A   Overcast
12:35 PM 51.8 °F - 26.6 °F 38% 29.64 in 10.0 mi WSW 17.3 mph 24.2 mph N/A   Overcast
12:55 PM 51.8 °F - 30.2 °F 44% 29.63 in 10.0 mi SW 16.1 mph 28.8 mph N/A   Overcast
1:15 PM 51.8 °F - 30.2 °F 44% 29.63 in 10.0 mi WSW 20.7 mph 29.9 mph N/A   Overcast
1:35 PM 51.8 °F - 30.2 °F 44% 29.63 in 10.0 mi WSW 15.0 mph 20.7 mph N/A   Mostly Cloudy
1:55 PM 50.0 °F - 30.2 °F 47% 29.62 in 10.0 mi SSW 17.3 mph 24.2 mph N/A   Overcast
2:15 PM 44.6 °F 37.4 °F 33.8 °F 66% 29.63 in 7.0 mi SW 16.1 mph 28.8 mph N/A   Drizzle
2:35 PM 42.8 °F 33.8 °F 37.4 °F 81% 29.65 in 3.0 mi WSW 21.9 mph 27.6 mph N/A Rain , Thunderstorm Light Thunderstorms and Rain
2:55 PM 39.2 °F 30.5 °F 37.4 °F 93% 29.65 in 7.0 mi WSW 16.1 mph 23.0 mph 0.01 in   Overcast
3:15 PM 39.2 °F 31.2 °F 37.4 °F 93% 29.66 in 4.0 mi SSW 13.8 mph 21.9 mph 0.03 in Rain Rain
3:35 PM 39.2 °F 32.0 °F 37.4 °F 93% 29.66 in 4.0 mi West 11.5 mph 20.7 mph 0.06 in Rain Light Rain
3:55 PM 41.0 °F 33.9 °F 37.4 °F 87% 29.65 in 10.0 mi West 12.7 mph 24.2 mph 0.06 in   Mostly Cloudy
4:15 PM 41.0 °F 35.2 °F 35.6 °F 81% 29.68 in 10.0 mi WSW 9.2 mph - N/A   Mostly Cloudy
4:35 PM 41.0 °F 35.8 °F 35.6 °F 81% 29.69 in 10.0 mi WSW 8.1 mph - N/A   Overcast
4:55 PM 39.2 °F 32.5 °F 35.6 °F 87% 29.69 in 10.0 mi WSW 10.4 mph - N/A Rain Rain
5:15 PM 35.6 °F 29.9 °F 33.8 °F 93% 29.70 in 10.0 mi West 6.9 mph - N/A   Overcast
5:35 PM 35.6 °F 26.2 °F 33.8 °F 93% 29.71 in 10.0 mi WSW 15.0 mph - N/A   Overcast
5:55 PM 33.8 °F 23.9 °F 32.0 °F 93% 29.71 in 10.0 mi West 15.0 mph 23.0 mph N/A   Overcast
6:15 PM 35.6 °F 26.2 °F 32.0 °F 87% 29.70 in 10.0 mi West 15.0 mph 20.7 mph N/A   Overcast
6:35 PM 35.6 °F 26.6 °F 30.2 °F 81% 29.73 in 10.0 mi West 13.8 mph 19.6 mph N/A   Overcast
6:55 PM 33.8 °F 23.9 °F 30.2 °F 87% 29.73 in 5.0 mi West 15.0 mph 24.2 mph N/A Snow Light Snow
7:15 PM 33.8 °F 24.3 °F 30.2 °F 87% 29.73 in 10.0 mi West 13.8 mph 21.9 mph N/A   Overcast
7:35 PM 33.8 °F 24.3 °F 28.4 °F 81% 29.73 in 7.0 mi West 13.8 mph 20.7 mph N/A Snow Light Snow
7:55 PM 33.8 °F 25.8 °F 28.4 °F 81% 29.72 in 10.0 mi WNW 10.4 mph - N/A   Overcast
8:15 PM 33.8 °F 28.6 °F 26.6 °F 75% 29.74 in 10.0 mi WSW 5.8 mph - N/A   Overcast
8:35 PM 35.6 °F 28.6 °F 26.6 °F 70% 29.74 in 10.0 mi WSW 9.2 mph - N/A   Overcast
8:55 PM 33.8 °F 25.8 °F 30.2 °F 87% 29.73 in 10.0 mi WSW 10.4 mph - N/A   Overcast
9:15 PM 32.0 °F 27.5 °F 30.2 °F 93% 29.73 in 7.0 mi SW 4.6 mph - N/A Snow Light Snow
9:35 PM 32.0 °F 26.4 °F 32.0 °F 100% 29.74 in 10.0 mi SSW 5.8 mph - N/A   Overcast
9:55 PM 32.0 °F 27.5 °F 32.0 °F 100% 29.74 in 10.0 mi SSW 4.6 mph - N/A   Overcast
10:15 PM 32.0 °F 24.8 °F 32.0 °F 100% 29.75 in 7.0 mi SW 8.1 mph - N/A Snow Light Snow
10:35 PM 32.0 °F 24.8 °F 32.0 °F 100% 29.74 in 2.5 mi WSW 8.1 mph - N/A Snow Light Snow
10:55 PM 32.0 °F 25.6 °F 32.0 °F 100% 29.74 in 3.0 mi SW 6.9 mph - N/A Snow Light Snow
11:15 PM 32.0 °F 25.6 °F 32.0 °F 100% 29.74 in 0.8 mi SW 6.9 mph - N/A Snow Light Snow
11:35 PM 32.0 °F 25.6 °F 32.0 °F 100% 29.74 in 4.0 mi WSW 6.9 mph - N/A Snow Light Snow
11:55 PM 32.0 °F 23.6 °F 32.0 °F 100% 29.76 in 0.8 mi SW 10.4 mph - N/A   Overcast